Weather at Rome–Fiumicino Leonardo da Vinci International Airport

Public forecast

Using degrees Celsius for public forecast. Weather courtesy of forecast.io.

Current aviation weather report (METAR) for Rome–Fiumicino Leonardo da Vinci International Airport

2022/11/30 10:50 (retrieved 24 minutes ago)

LIRF 301050Z 03011KT CAVOK 14/06 Q1011 NOSIG

Aviation forecast (TAF) for Rome–Fiumicino Leonardo da Vinci International Airport

2022/11/30 06:00 (retrieved 5 hours ago)

TAF LIRF 300500Z 3006/0112 04010KT 9999 SCT050